sensor_id;sensor_type;location;lat;lon;timestamp;P1;durP1;ratioP1;P2;durP2;ratioP2
10246;SDS011;5168;47.854;7.944;2022-08-19T00:01:37;17.93;;;12.40;;
10246;SDS011;5168;47.854;7.944;2022-08-19T00:04:05;14.23;;;9.70;;
10246;SDS011;5168;47.854;7.944;2022-08-19T00:06:33;15.73;;;12.13;;
10246;SDS011;5168;47.854;7.944;2022-08-19T00:09:00;15.03;;;11.87;;
10246;SDS011;5168;47.854;7.944;2022-08-19T00:11:26;17.13;;;14.23;;
10246;SDS011;5168;47.854;7.944;2022-08-19T00:13:53;17.13;;;13.77;;
10246;SDS011;5168;47.854;7.944;2022-08-19T00:16:20;13.57;;;11.77;;
10246;SDS011;5168;47.854;7.944;2022-08-19T00:18:46;13.17;;;10.53;;
10246;SDS011;5168;47.854;7.944;2022-08-19T00:21:13;12.70;;;10.83;;
10246;SDS011;5168;47.854;7.944;2022-08-19T00:23:39;12.67;;;10.70;;
10246;SDS011;5168;47.854;7.944;2022-08-19T00:26:05;11.77;;;10.10;;
10246;SDS011;5168;47.854;7.944;2022-08-19T00:28:31;12.83;;;10.60;;
10246;SDS011;5168;47.854;7.944;2022-08-19T00:30:58;14.60;;;12.90;;
10246;SDS011;5168;47.854;7.944;2022-08-19T00:33:24;13.70;;;11.50;;
10246;SDS011;5168;47.854;7.944;2022-08-19T00:35:50;15.77;;;12.57;;
10246;SDS011;5168;47.854;7.944;2022-08-19T00:38:16;13.80;;;11.80;;
10246;SDS011;5168;47.854;7.944;2022-08-19T00:40:42;14.67;;;11.87;;
10246;SDS011;5168;47.854;7.944;2022-08-19T00:43:11;18.77;;;13.87;;
10246;SDS011;5168;47.854;7.944;2022-08-19T00:45:40;17.47;;;13.73;;
10246;SDS011;5168;47.854;7.944;2022-08-19T00:48:08;16.63;;;12.97;;
10246;SDS011;5168;47.854;7.944;2022-08-19T00:50:34;14.53;;;12.93;;
10246;SDS011;5168;47.854;7.944;2022-08-19T00:53:01;17.43;;;14.00;;
10246;SDS011;5168;47.854;7.944;2022-08-19T00:55:28;13.63;;;11.10;;
10246;SDS011;5168;47.854;7.944;2022-08-19T00:57:58;14.53;;;12.53;;
10246;SDS011;5168;47.854;7.944;2022-08-19T01:00:29;11.90;;;10.70;;
10246;SDS011;5168;47.854;7.944;2022-08-19T01:02:55;16.13;;;13.30;;
10246;SDS011;5168;47.854;7.944;2022-08-19T01:05:22;14.27;;;12.57;;
10246;SDS011;5168;47.854;7.944;2022-08-19T01:07:52;14.83;;;12.00;;
10246;SDS011;5168;47.854;7.944;2022-08-19T01:10:20;16.53;;;14.23;;
10246;SDS011;5168;47.854;7.944;2022-08-19T01:12:49;13.93;;;12.20;;
10246;SDS011;5168;47.854;7.944;2022-08-19T01:15:17;17.53;;;13.67;;
10246;SDS011;5168;47.854;7.944;2022-08-19T01:17:45;14.37;;;12.60;;
10246;SDS011;5168;47.854;7.944;2022-08-19T01:20:19;18.73;;;14.33;;
10246;SDS011;5168;47.854;7.944;2022-08-19T01:22:48;18.97;;;13.73;;
10246;SDS011;5168;47.854;7.944;2022-08-19T01:25:17;18.13;;;15.13;;
10246;SDS011;5168;47.854;7.944;2022-08-19T01:27:46;15.03;;;12.13;;
10246;SDS011;5168;47.854;7.944;2022-08-19T01:30:21;16.07;;;13.23;;
10246;SDS011;5168;47.854;7.944;2022-08-19T01:32:50;14.33;;;11.77;;
10246;SDS011;5168;47.854;7.944;2022-08-19T01:35:17;21.43;;;17.23;;
10246;SDS011;5168;47.854;7.944;2022-08-19T01:37:47;17.77;;;13.73;;
10246;SDS011;5168;47.854;7.944;2022-08-19T01:40:18;16.77;;;13.27;;
10246;SDS011;5168;47.854;7.944;2022-08-19T01:42:46;16.83;;;13.27;;
10246;SDS011;5168;47.854;7.944;2022-08-19T01:45:13;18.73;;;14.40;;
10246;SDS011;5168;47.854;7.944;2022-08-19T01:47:40;16.83;;;12.70;;
10246;SDS011;5168;47.854;7.944;2022-08-19T01:50:06;18.73;;;14.50;;
10246;SDS011;5168;47.854;7.944;2022-08-19T01:52:34;14.40;;;11.67;;
10246;SDS011;5168;47.854;7.944;2022-08-19T01:55:01;13.70;;;11.10;;
10246;SDS011;5168;47.854;7.944;2022-08-19T01:57:27;18.57;;;14.37;;
10246;SDS011;5168;47.854;7.944;2022-08-19T01:59:53;17.50;;;13.73;;
10246;SDS011;5168;47.854;7.944;2022-08-19T02:02:18;17.70;;;14.87;;
10246;SDS011;5168;47.854;7.944;2022-08-19T02:04:44;21.97;;;17.07;;
10246;SDS011;5168;47.854;7.944;2022-08-19T02:07:10;18.07;;;14.93;;
10246;SDS011;5168;47.854;7.944;2022-08-19T02:09:36;16.90;;;13.37;;
10246;SDS011;5168;47.854;7.944;2022-08-19T02:12:02;19.77;;;15.20;;
10246;SDS011;5168;47.854;7.944;2022-08-19T02:14:29;21.43;;;16.20;;
10246;SDS011;5168;47.854;7.944;2022-08-19T02:16:55;21.53;;;16.40;;
10246;SDS011;5168;47.854;7.944;2022-08-19T02:19:20;20.63;;;15.87;;
10246;SDS011;5168;47.854;7.944;2022-08-19T02:21:46;18.60;;;14.47;;
10246;SDS011;5168;47.854;7.944;2022-08-19T02:24:12;18.60;;;14.47;;
10246;SDS011;5168;47.854;7.944;2022-08-19T02:26:37;17.87;;;14.67;;
10246;SDS011;5168;47.854;7.944;2022-08-19T02:29:04;17.87;;;15.17;;
10246;SDS011;5168;47.854;7.944;2022-08-19T02:31:29;15.87;;;13.37;;
10246;SDS011;5168;47.854;7.944;2022-08-19T02:33:55;15.50;;;13.43;;
10246;SDS011;5168;47.854;7.944;2022-08-19T02:36:21;17.13;;;13.80;;
10246;SDS011;5168;47.854;7.944;2022-08-19T02:38:48;17.30;;;14.53;;
10246;SDS011;5168;47.854;7.944;2022-08-19T02:41:16;16.03;;;12.73;;
10246;SDS011;5168;47.854;7.944;2022-08-19T02:43:43;18.10;;;14.73;;
10246;SDS011;5168;47.854;7.944;2022-08-19T02:46:13;22.10;;;17.20;;
10246;SDS011;5168;47.854;7.944;2022-08-19T02:48:38;22.00;;;16.97;;
10246;SDS011;5168;47.854;7.944;2022-08-19T02:51:04;15.47;;;13.10;;
10246;SDS011;5168;47.854;7.944;2022-08-19T02:53:30;14.90;;;13.10;;
10246;SDS011;5168;47.854;7.944;2022-08-19T02:55:56;21.87;;;17.20;;
10246;SDS011;5168;47.854;7.944;2022-08-19T02:58:22;19.57;;;17.17;;
10246;SDS011;5168;47.854;7.944;2022-08-19T03:00:49;16.37;;;13.53;;
10246;SDS011;5168;47.854;7.944;2022-08-19T03:03:17;14.53;;;11.33;;
10246;SDS011;5168;47.854;7.944;2022-08-19T03:05:44;13.73;;;12.30;;
10246;SDS011;5168;47.854;7.944;2022-08-19T03:08:10;15.40;;;13.70;;
10246;SDS011;5168;47.854;7.944;2022-08-19T03:10:41;14.47;;;12.20;;
10246;SDS011;5168;47.854;7.944;2022-08-19T03:13:09;17.60;;;14.17;;
10246;SDS011;5168;47.854;7.944;2022-08-19T03:15:38;16.87;;;14.23;;
10246;SDS011;5168;47.854;7.944;2022-08-19T03:18:05;13.60;;;12.07;;
10246;SDS011;5168;47.854;7.944;2022-08-19T03:20:30;14.60;;;12.77;;
10246;SDS011;5168;47.854;7.944;2022-08-19T03:22:56;17.57;;;12.90;;
10246;SDS011;5168;47.854;7.944;2022-08-19T03:25:22;13.57;;;11.67;;
10246;SDS011;5168;47.854;7.944;2022-08-19T03:27:47;15.90;;;13.50;;
10246;SDS011;5168;47.854;7.944;2022-08-19T03:30:13;17.40;;;15.17;;
10246;SDS011;5168;47.854;7.944;2022-08-19T03:32:39;15.43;;;12.73;;
10246;SDS011;5168;47.854;7.944;2022-08-19T03:35:05;16.97;;;14.37;;
10246;SDS011;5168;47.854;7.944;2022-08-19T03:37:31;15.37;;;13.13;;
10246;SDS011;5168;47.854;7.944;2022-08-19T03:39:57;16.13;;;12.97;;
10246;SDS011;5168;47.854;7.944;2022-08-19T03:42:23;14.63;;;12.90;;
10246;SDS011;5168;47.854;7.944;2022-08-19T03:44:48;16.30;;;13.00;;
10246;SDS011;5168;47.854;7.944;2022-08-19T03:47:14;17.67;;;14.33;;
10246;SDS011;5168;47.854;7.944;2022-08-19T03:49:40;14.47;;;12.53;;
10246;SDS011;5168;47.854;7.944;2022-08-19T03:52:06;27.57;;;18.13;;
10246;SDS011;5168;47.854;7.944;2022-08-19T03:54:33;20.47;;;15.47;;
10246;SDS011;5168;47.854;7.944;2022-08-19T03:56:59;17.60;;;13.80;;
10246;SDS011;5168;47.854;7.944;2022-08-19T03:59:26;20.87;;;15.37;;
10246;SDS011;5168;47.854;7.944;2022-08-19T04:01:57;17.67;;;13.87;;
10246;SDS011;5168;47.854;7.944;2022-08-19T04:04:25;16.37;;;12.57;;
10246;SDS011;5168;47.854;7.944;2022-08-19T04:06:51;16.83;;;13.00;;
10246;SDS011;5168;47.854;7.944;2022-08-19T04:09:17;18.43;;;14.90;;
10246;SDS011;5168;47.854;7.944;2022-08-19T04:11:45;19.43;;;14.63;;
10246;SDS011;5168;47.854;7.944;2022-08-19T04:14:14;17.63;;;13.20;;
10246;SDS011;5168;47.854;7.944;2022-08-19T04:16:41;23.80;;;17.27;;
10246;SDS011;5168;47.854;7.944;2022-08-19T04:19:09;25.93;;;18.07;;
10246;SDS011;5168;47.854;7.944;2022-08-19T04:21:35;19.27;;;14.67;;
10246;SDS011;5168;47.854;7.944;2022-08-19T04:24:01;27.60;;;19.00;;
10246;SDS011;5168;47.854;7.944;2022-08-19T04:26:28;23.60;;;16.10;;
10246;SDS011;5168;47.854;7.944;2022-08-19T04:28:59;19.93;;;14.37;;
10246;SDS011;5168;47.854;7.944;2022-08-19T04:31:27;19.63;;;14.80;;
10246;SDS011;5168;47.854;7.944;2022-08-19T04:33:56;19.30;;;14.13;;
10246;SDS011;5168;47.854;7.944;2022-08-19T04:36:24;19.57;;;15.07;;
10246;SDS011;5168;47.854;7.944;2022-08-19T04:38:59;21.37;;;15.53;;
10246;SDS011;5168;47.854;7.944;2022-08-19T04:41:30;22.23;;;15.07;;
10246;SDS011;5168;47.854;7.944;2022-08-19T04:44:15;18.40;;;14.13;;
10246;SDS011;5168;47.854;7.944;2022-08-19T04:46:43;21.43;;;16.60;;
10246;SDS011;5168;47.854;7.944;2022-08-19T04:49:09;20.73;;;15.70;;
10246;SDS011;5168;47.854;7.944;2022-08-19T04:51:36;18.20;;;13.83;;
10246;SDS011;5168;47.854;7.944;2022-08-19T04:54:02;17.73;;;13.70;;
10246;SDS011;5168;47.854;7.944;2022-08-19T04:56:28;21.80;;;15.80;;
10246;SDS011;5168;47.854;7.944;2022-08-19T04:58:54;16.67;;;13.10;;
10246;SDS011;5168;47.854;7.944;2022-08-19T05:01:22;19.13;;;15.80;;
10246;SDS011;5168;47.854;7.944;2022-08-19T05:03:50;18.83;;;14.33;;
10246;SDS011;5168;47.854;7.944;2022-08-19T05:06:16;17.43;;;12.80;;
10246;SDS011;5168;47.854;7.944;2022-08-19T05:08:44;21.67;;;17.33;;
10246;SDS011;5168;47.854;7.944;2022-08-19T05:11:11;20.50;;;16.43;;
10246;SDS011;5168;47.854;7.944;2022-08-19T05:13:44;20.50;;;16.13;;
10246;SDS011;5168;47.854;7.944;2022-08-19T05:16:11;21.00;;;15.40;;
10246;SDS011;5168;47.854;7.944;2022-08-19T05:18:38;17.10;;;13.20;;
10246;SDS011;5168;47.854;7.944;2022-08-19T05:21:23;15.23;;;12.57;;
10246;SDS011;5168;47.854;7.944;2022-08-19T05:24:07;15.73;;;12.60;;
10246;SDS011;5168;47.854;7.944;2022-08-19T05:26:37;18.47;;;16.00;;
10246;SDS011;5168;47.854;7.944;2022-08-19T05:29:03;14.47;;;11.87;;
10246;SDS011;5168;47.854;7.944;2022-08-19T05:31:29;14.93;;;12.70;;
10246;SDS011;5168;47.854;7.944;2022-08-19T05:33:55;14.30;;;11.73;;
10246;SDS011;5168;47.854;7.944;2022-08-19T05:36:24;13.07;;;11.43;;
10246;SDS011;5168;47.854;7.944;2022-08-19T05:38:50;15.63;;;13.43;;
10246;SDS011;5168;47.854;7.944;2022-08-19T05:41:17;18.33;;;14.50;;
10246;SDS011;5168;47.854;7.944;2022-08-19T05:43:43;15.30;;;13.33;;
10246;SDS011;5168;47.854;7.944;2022-08-19T05:46:15;18.63;;;14.27;;
10246;SDS011;5168;47.854;7.944;2022-08-19T05:48:43;15.40;;;12.33;;
10246;SDS011;5168;47.854;7.944;2022-08-19T05:51:08;11.47;;;10.23;;
10246;SDS011;5168;47.854;7.944;2022-08-19T05:53:34;12.87;;;11.33;;
10246;SDS011;5168;47.854;7.944;2022-08-19T05:56:12;12.80;;;11.47;;
10246;SDS011;5168;47.854;7.944;2022-08-19T05:58:42;15.03;;;12.60;;
10246;SDS011;5168;47.854;7.944;2022-08-19T06:01:10;19.37;;;14.53;;
10246;SDS011;5168;47.854;7.944;2022-08-19T06:03:39;12.13;;;10.07;;
10246;SDS011;5168;47.854;7.944;2022-08-19T06:06:05;15.47;;;13.17;;
10246;SDS011;5168;47.854;7.944;2022-08-19T06:08:32;17.77;;;14.10;;
10246;SDS011;5168;47.854;7.944;2022-08-19T06:10:59;18.27;;;14.10;;
10246;SDS011;5168;47.854;7.944;2022-08-19T06:13:39;15.70;;;12.70;;
10246;SDS011;5168;47.854;7.944;2022-08-19T06:16:05;13.73;;;11.73;;
10246;SDS011;5168;47.854;7.944;2022-08-19T06:18:31;16.20;;;13.43;;
10246;SDS011;5168;47.854;7.944;2022-08-19T06:20:58;17.40;;;13.13;;
10246;SDS011;5168;47.854;7.944;2022-08-19T06:23:24;22.93;;;16.03;;
10246;SDS011;5168;47.854;7.944;2022-08-19T06:25:50;22.00;;;15.47;;
10246;SDS011;5168;47.854;7.944;2022-08-19T06:28:16;22.00;;;16.73;;
10246;SDS011;5168;47.854;7.944;2022-08-19T06:30:41;17.03;;;11.80;;
10246;SDS011;5168;47.854;7.944;2022-08-19T06:33:07;18.60;;;14.60;;
10246;SDS011;5168;47.854;7.944;2022-08-19T06:35:33;25.00;;;18.07;;
10246;SDS011;5168;47.854;7.944;2022-08-19T06:38:04;19.97;;;15.97;;
10246;SDS011;5168;47.854;7.944;2022-08-19T06:40:29;20.47;;;15.87;;
10246;SDS011;5168;47.854;7.944;2022-08-19T06:42:55;21.47;;;16.17;;
10246;SDS011;5168;47.854;7.944;2022-08-19T06:45:23;25.93;;;16.67;;
10246;SDS011;5168;47.854;7.944;2022-08-19T06:47:49;23.50;;;17.53;;
10246;SDS011;5168;47.854;7.944;2022-08-19T06:50:19;20.53;;;16.07;;
10246;SDS011;5168;47.854;7.944;2022-08-19T06:52:44;28.03;;;19.33;;
10246;SDS011;5168;47.854;7.944;2022-08-19T06:55:11;21.90;;;16.00;;
10246;SDS011;5168;47.854;7.944;2022-08-19T06:57:37;21.40;;;15.73;;
10246;SDS011;5168;47.854;7.944;2022-08-19T07:00:03;30.93;;;20.77;;
10246;SDS011;5168;47.854;7.944;2022-08-19T07:02:33;31.60;;;21.03;;
10246;SDS011;5168;47.854;7.944;2022-08-19T07:05:02;26.83;;;19.60;;
10246;SDS011;5168;47.854;7.944;2022-08-19T07:07:29;29.00;;;20.30;;
10246;SDS011;5168;47.854;7.944;2022-08-19T07:09:56;26.80;;;19.93;;
10246;SDS011;5168;47.854;7.944;2022-08-19T07:12:21;28.97;;;21.33;;
10246;SDS011;5168;47.854;7.944;2022-08-19T07:14:47;30.37;;;22.03;;
10246;SDS011;5168;47.854;7.944;2022-08-19T07:17:14;27.80;;;20.20;;
10246;SDS011;5168;47.854;7.944;2022-08-19T07:19:40;27.03;;;19.77;;
10246;SDS011;5168;47.854;7.944;2022-08-19T07:22:08;32.50;;;20.57;;
10246;SDS011;5168;47.854;7.944;2022-08-19T07:24:34;30.57;;;20.70;;
10246;SDS011;5168;47.854;7.944;2022-08-19T07:27:01;29.53;;;20.73;;
10246;SDS011;5168;47.854;7.944;2022-08-19T07:29:29;29.13;;;21.23;;
10246;SDS011;5168;47.854;7.944;2022-08-19T07:31:58;28.70;;;20.40;;
10246;SDS011;5168;47.854;7.944;2022-08-19T07:34:24;34.33;;;22.13;;
10246;SDS011;5168;47.854;7.944;2022-08-19T07:36:52;29.83;;;21.07;;
10246;SDS011;5168;47.854;7.944;2022-08-19T07:39:28;27.70;;;19.17;;
10246;SDS011;5168;47.854;7.944;2022-08-19T07:41:55;31.47;;;22.27;;
10246;SDS011;5168;47.854;7.944;2022-08-19T07:44:23;30.73;;;21.93;;
10246;SDS011;5168;47.854;7.944;2022-08-19T07:46:50;27.33;;;20.17;;
10246;SDS011;5168;47.854;7.944;2022-08-19T07:49:18;30.83;;;21.57;;
10246;SDS011;5168;47.854;7.944;2022-08-19T07:51:51;27.77;;;19.40;;
10246;SDS011;5168;47.854;7.944;2022-08-19T07:54:19;30.30;;;21.60;;
10246;SDS011;5168;47.854;7.944;2022-08-19T07:56:46;41.90;;;23.80;;
10246;SDS011;5168;47.854;7.944;2022-08-19T07:59:12;27.10;;;20.37;;
10246;SDS011;5168;47.854;7.944;2022-08-19T08:01:38;33.67;;;21.67;;
10246;SDS011;5168;47.854;7.944;2022-08-19T08:04:05;30.07;;;21.73;;
10246;SDS011;5168;47.854;7.944;2022-08-19T08:06:50;25.50;;;18.17;;
10246;SDS011;5168;47.854;7.944;2022-08-19T08:09:36;27.70;;;20.83;;
10246;SDS011;5168;47.854;7.944;2022-08-19T08:12:05;25.27;;;18.77;;
10246;SDS011;5168;47.854;7.944;2022-08-19T08:14:42;25.57;;;19.77;;
10246;SDS011;5168;47.854;7.944;2022-08-19T08:17:11;23.87;;;17.80;;
10246;SDS011;5168;47.854;7.944;2022-08-19T08:19:38;27.30;;;18.97;;
10246;SDS011;5168;47.854;7.944;2022-08-19T08:22:06;26.40;;;18.57;;
10246;SDS011;5168;47.854;7.944;2022-08-19T08:24:32;19.33;;;16.47;;
10246;SDS011;5168;47.854;7.944;2022-08-19T08:26:59;29.10;;;19.83;;
10246;SDS011;5168;47.854;7.944;2022-08-19T08:29:26;26.10;;;19.23;;
10246;SDS011;5168;47.854;7.944;2022-08-19T08:31:52;29.17;;;21.87;;
10246;SDS011;5168;47.854;7.944;2022-08-19T08:34:18;24.63;;;18.87;;
10246;SDS011;5168;47.854;7.944;2022-08-19T08:36:45;30.53;;;21.43;;
10246;SDS011;5168;47.854;7.944;2022-08-19T08:39:18;25.07;;;18.53;;
10246;SDS011;5168;47.854;7.944;2022-08-19T08:44:54;28.97;;;21.07;;
10246;SDS011;5168;47.854;7.944;2022-08-19T08:47:23;30.47;;;20.90;;
10246;SDS011;5168;47.854;7.944;2022-08-19T08:49:54;26.50;;;19.43;;
10246;SDS011;5168;47.854;7.944;2022-08-19T08:52:26;24.87;;;19.43;;
10246;SDS011;5168;47.854;7.944;2022-08-19T08:55:00;21.43;;;17.13;;
10246;SDS011;5168;47.854;7.944;2022-08-19T09:00:36;20.47;;;15.43;;
10246;SDS011;5168;47.854;7.944;2022-08-19T09:03:03;21.23;;;16.07;;
10246;SDS011;5168;47.854;7.944;2022-08-19T09:12:00;19.60;;;17.27;;
10246;SDS011;5168;47.854;7.944;2022-08-19T09:14:10;18.73;;;14.90;;
10246;SDS011;5168;47.854;7.944;2022-08-19T09:16:57;18.13;;;14.47;;
10246;SDS011;5168;47.854;7.944;2022-08-19T09:19:24;15.83;;;12.50;;
10246;SDS011;5168;47.854;7.944;2022-08-19T09:21:50;15.97;;;14.27;;
10246;SDS011;5168;47.854;7.944;2022-08-19T09:24:16;13.47;;;12.07;;
10246;SDS011;5168;47.854;7.944;2022-08-19T09:26:41;20.23;;;16.37;;
10246;SDS011;5168;47.854;7.944;2022-08-19T09:29:08;18.07;;;14.33;;
10246;SDS011;5168;47.854;7.944;2022-08-19T09:31:35;18.00;;;14.87;;
10246;SDS011;5168;47.854;7.944;2022-08-19T09:34:01;17.43;;;14.40;;
10246;SDS011;5168;47.854;7.944;2022-08-19T09:36:29;14.97;;;13.13;;
10246;SDS011;5168;47.854;7.944;2022-08-19T09:38:57;14.30;;;12.77;;
10246;SDS011;5168;47.854;7.944;2022-08-19T09:41:25;16.37;;;13.83;;
10246;SDS011;5168;47.854;7.944;2022-08-19T09:43:52;19.80;;;14.97;;
10246;SDS011;5168;47.854;7.944;2022-08-19T09:46:21;17.23;;;14.20;;
10246;SDS011;5168;47.854;7.944;2022-08-19T09:48:48;16.90;;;14.97;;
10246;SDS011;5168;47.854;7.944;2022-08-19T09:51:16;16.67;;;13.03;;
10246;SDS011;5168;47.854;7.944;2022-08-19T09:53:44;19.13;;;14.67;;
10246;SDS011;5168;47.854;7.944;2022-08-19T09:56:11;16.37;;;14.03;;
10246;SDS011;5168;47.854;7.944;2022-08-19T09:58:38;16.50;;;13.33;;
10246;SDS011;5168;47.854;7.944;2022-08-19T10:01:05;14.80;;;12.30;;
10246;SDS011;5168;47.854;7.944;2022-08-19T10:03:32;11.63;;;10.33;;
10246;SDS011;5168;47.854;7.944;2022-08-19T10:06:00;13.10;;;10.83;;
10246;SDS011;5168;47.854;7.944;2022-08-19T10:08:30;15.57;;;12.73;;
10246;SDS011;5168;47.854;7.944;2022-08-19T10:10:58;16.50;;;14.43;;
10246;SDS011;5168;47.854;7.944;2022-08-19T10:13:25;15.90;;;13.30;;
10246;SDS011;5168;47.854;7.944;2022-08-19T10:15:53;19.00;;;13.77;;
10246;SDS011;5168;47.854;7.944;2022-08-19T10:18:21;13.97;;;11.53;;
10246;SDS011;5168;47.854;7.944;2022-08-19T10:20:49;15.20;;;12.90;;
10246;SDS011;5168;47.854;7.944;2022-08-19T10:23:16;16.90;;;14.23;;
10246;SDS011;5168;47.854;7.944;2022-08-19T10:25:42;13.17;;;11.80;;
10246;SDS011;5168;47.854;7.944;2022-08-19T10:28:08;18.67;;;15.00;;
10246;SDS011;5168;47.854;7.944;2022-08-19T10:30:37;16.30;;;12.20;;
10246;SDS011;5168;47.854;7.944;2022-08-19T10:33:03;12.83;;;11.53;;
10246;SDS011;5168;47.854;7.944;2022-08-19T10:35:29;13.57;;;11.50;;
10246;SDS011;5168;47.854;7.944;2022-08-19T10:37:55;14.90;;;12.03;;
10246;SDS011;5168;47.854;7.944;2022-08-19T10:40:26;20.20;;;17.30;;
10246;SDS011;5168;47.854;7.944;2022-08-19T10:42:53;19.40;;;16.23;;
10246;SDS011;5168;47.854;7.944;2022-08-19T10:45:20;17.60;;;15.70;;
10246;SDS011;5168;47.854;7.944;2022-08-19T10:47:50;20.23;;;16.73;;
10246;SDS011;5168;47.854;7.944;2022-08-19T10:50:15;18.07;;;15.33;;
10246;SDS011;5168;47.854;7.944;2022-08-19T10:53:03;14.50;;;13.00;;
10246;SDS011;5168;47.854;7.944;2022-08-19T10:55:36;14.27;;;12.73;;
10246;SDS011;5168;47.854;7.944;2022-08-19T10:58:21;22.73;;;18.10;;
10246;SDS011;5168;47.854;7.944;2022-08-19T11:00:51;20.30;;;18.03;;
10246;SDS011;5168;47.854;7.944;2022-08-19T11:03:18;17.27;;;15.13;;
10246;SDS011;5168;47.854;7.944;2022-08-19T11:05:44;15.43;;;13.40;;
10246;SDS011;5168;47.854;7.944;2022-08-19T11:08:10;23.17;;;20.23;;
10246;SDS011;5168;47.854;7.944;2022-08-19T11:10:36;12.53;;;11.30;;
10246;SDS011;5168;47.854;7.944;2022-08-19T11:13:02;23.67;;;20.47;;
10246;SDS011;5168;47.854;7.944;2022-08-19T11:15:28;28.27;;;20.43;;
10246;SDS011;5168;47.854;7.944;2022-08-19T11:17:57;24.80;;;19.83;;
10246;SDS011;5168;47.854;7.944;2022-08-19T11:20:22;20.23;;;18.10;;
10246;SDS011;5168;47.854;7.944;2022-08-19T11:22:50;28.57;;;22.33;;
10246;SDS011;5168;47.854;7.944;2022-08-19T11:25:18;23.10;;;20.13;;
10246;SDS011;5168;47.854;7.944;2022-08-19T11:27:44;22.50;;;19.90;;
10246;SDS011;5168;47.854;7.944;2022-08-19T11:30:11;27.33;;;23.10;;
10246;SDS011;5168;47.854;7.944;2022-08-19T11:32:38;32.10;;;25.33;;
10246;SDS011;5168;47.854;7.944;2022-08-19T11:35:05;26.17;;;22.17;;
10246;SDS011;5168;47.854;7.944;2022-08-19T11:37:31;31.70;;;24.63;;
10246;SDS011;5168;47.854;7.944;2022-08-19T11:40:03;22.23;;;18.70;;
10246;SDS011;5168;47.854;7.944;2022-08-19T11:42:32;23.27;;;19.53;;
10246;SDS011;5168;47.854;7.944;2022-08-19T11:45:16;22.67;;;19.30;;
10246;SDS011;5168;47.854;7.944;2022-08-19T11:47:42;30.27;;;23.63;;
10246;SDS011;5168;47.854;7.944;2022-08-19T11:50:08;22.17;;;18.40;;
10246;SDS011;5168;47.854;7.944;2022-08-19T11:52:34;26.67;;;22.20;;
10246;SDS011;5168;47.854;7.944;2022-08-19T11:55:01;27.20;;;21.73;;
10246;SDS011;5168;47.854;7.944;2022-08-19T11:57:27;25.13;;;19.57;;
10246;SDS011;5168;47.854;7.944;2022-08-19T11:59:54;20.87;;;17.13;;
10246;SDS011;5168;47.854;7.944;2022-08-19T12:02:19;20.27;;;17.43;;
10246;SDS011;5168;47.854;7.944;2022-08-19T12:04:46;22.13;;;18.60;;
10246;SDS011;5168;47.854;7.944;2022-08-19T12:07:12;21.27;;;16.90;;
10246;SDS011;5168;47.854;7.944;2022-08-19T12:09:37;31.27;;;23.27;;
10246;SDS011;5168;47.854;7.944;2022-08-19T12:12:04;24.63;;;19.63;;
10246;SDS011;5168;47.854;7.944;2022-08-19T12:14:30;26.03;;;21.63;;
10246;SDS011;5168;47.854;7.944;2022-08-19T12:16:56;29.60;;;21.63;;
10246;SDS011;5168;47.854;7.944;2022-08-19T12:19:22;22.77;;;17.67;;
10246;SDS011;5168;47.854;7.944;2022-08-19T12:21:49;23.77;;;18.67;;
10246;SDS011;5168;47.854;7.944;2022-08-19T12:24:16;22.10;;;16.37;;
10246;SDS011;5168;47.854;7.944;2022-08-19T12:26:47;27.77;;;21.90;;
10246;SDS011;5168;47.854;7.944;2022-08-19T12:29:13;23.13;;;18.60;;
10246;SDS011;5168;47.854;7.944;2022-08-19T12:31:39;18.93;;;16.13;;
10246;SDS011;5168;47.854;7.944;2022-08-19T12:34:05;20.33;;;17.07;;
10246;SDS011;5168;47.854;7.944;2022-08-19T12:36:31;23.70;;;18.63;;
10246;SDS011;5168;47.854;7.944;2022-08-19T12:38:57;22.83;;;18.30;;
10246;SDS011;5168;47.854;7.944;2022-08-19T12:41:24;21.90;;;17.40;;
10246;SDS011;5168;47.854;7.944;2022-08-19T12:43:50;15.97;;;13.27;;
10246;SDS011;5168;47.854;7.944;2022-08-19T12:46:16;19.83;;;17.10;;
10246;SDS011;5168;47.854;7.944;2022-08-19T12:48:43;16.83;;;15.00;;
10246;SDS011;5168;47.854;7.944;2022-08-19T12:51:12;24.27;;;16.47;;
10246;SDS011;5168;47.854;7.944;2022-08-19T12:53:40;16.57;;;13.83;;
10246;SDS011;5168;47.854;7.944;2022-08-19T12:56:07;15.77;;;14.17;;
10246;SDS011;5168;47.854;7.944;2022-08-19T12:58:33;23.20;;;18.50;;
10246;SDS011;5168;47.854;7.944;2022-08-19T13:01:05;20.87;;;17.13;;
10246;SDS011;5168;47.854;7.944;2022-08-19T13:03:31;21.63;;;18.83;;
10246;SDS011;5168;47.854;7.944;2022-08-19T13:05:57;19.60;;;15.33;;
10246;SDS011;5168;47.854;7.944;2022-08-19T13:08:23;20.63;;;17.03;;
10246;SDS011;5168;47.854;7.944;2022-08-19T13:10:48;14.57;;;12.67;;
10246;SDS011;5168;47.854;7.944;2022-08-19T13:13:14;16.97;;;14.40;;
10246;SDS011;5168;47.854;7.944;2022-08-19T13:15:40;15.33;;;13.77;;
10246;SDS011;5168;47.854;7.944;2022-08-19T13:18:08;22.00;;;18.77;;
10246;SDS011;5168;47.854;7.944;2022-08-19T13:20:35;16.90;;;14.73;;
10246;SDS011;5168;47.854;7.944;2022-08-19T13:23:02;13.27;;;11.97;;
10246;SDS011;5168;47.854;7.944;2022-08-19T13:25:28;15.87;;;14.27;;
10246;SDS011;5168;47.854;7.944;2022-08-19T13:27:54;19.77;;;16.23;;
10246;SDS011;5168;47.854;7.944;2022-08-19T13:30:20;19.50;;;17.40;;
10246;SDS011;5168;47.854;7.944;2022-08-19T13:33:05;18.87;;;14.90;;
10246;SDS011;5168;47.854;7.944;2022-08-19T13:35:51;13.63;;;12.23;;
10246;SDS011;5168;47.854;7.944;2022-08-19T13:38:22;13.90;;;12.40;;
10246;SDS011;5168;47.854;7.944;2022-08-19T13:40:50;14.97;;;13.30;;
10246;SDS011;5168;47.854;7.944;2022-08-19T13:43:18;16.07;;;14.37;;
10246;SDS011;5168;47.854;7.944;2022-08-19T13:45:47;20.70;;;18.37;;
10246;SDS011;5168;47.854;7.944;2022-08-19T13:48:12;20.90;;;17.70;;
10246;SDS011;5168;47.854;7.944;2022-08-19T13:50:41;18.97;;;17.07;;
10246;SDS011;5168;47.854;7.944;2022-08-19T13:53:08;15.27;;;13.77;;
10246;SDS011;5168;47.854;7.944;2022-08-19T13:55:39;14.40;;;12.90;;
10246;SDS011;5168;47.854;7.944;2022-08-19T13:58:06;16.93;;;15.13;;
10246;SDS011;5168;47.854;7.944;2022-08-19T14:00:33;18.40;;;13.93;;
10246;SDS011;5168;47.854;7.944;2022-08-19T14:03:02;14.33;;;12.77;;
10246;SDS011;5168;47.854;7.944;2022-08-19T14:05:29;14.97;;;13.53;;
10246;SDS011;5168;47.854;7.944;2022-08-19T14:07:55;16.83;;;14.97;;
10246;SDS011;5168;47.854;7.944;2022-08-19T14:10:21;13.70;;;12.33;;
10246;SDS011;5168;47.854;7.944;2022-08-19T14:12:48;15.80;;;14.30;;
10246;SDS011;5168;47.854;7.944;2022-08-19T14:15:14;14.00;;;12.60;;
10246;SDS011;5168;47.854;7.944;2022-08-19T14:17:41;15.30;;;13.70;;
10246;SDS011;5168;47.854;7.944;2022-08-19T14:20:09;16.70;;;13.33;;
10246;SDS011;5168;47.854;7.944;2022-08-19T14:22:36;14.90;;;13.37;;
10246;SDS011;5168;47.854;7.944;2022-08-19T14:25:03;16.33;;;13.57;;
10246;SDS011;5168;47.854;7.944;2022-08-19T14:27:30;13.00;;;11.73;;
10246;SDS011;5168;47.854;7.944;2022-08-19T14:29:57;13.63;;;12.23;;
10246;SDS011;5168;47.854;7.944;2022-08-19T14:32:24;15.10;;;10.67;;
10246;SDS011;5168;47.854;7.944;2022-08-19T14:34:52;15.90;;;13.20;;
10246;SDS011;5168;47.854;7.944;2022-08-19T14:37:18;12.80;;;10.50;;
10246;SDS011;5168;47.854;7.944;2022-08-19T14:39:44;16.07;;;13.60;;
10246;SDS011;5168;47.854;7.944;2022-08-19T14:42:10;12.53;;;11.00;;
10246;SDS011;5168;47.854;7.944;2022-08-19T14:44:37;13.77;;;11.03;;
10246;SDS011;5168;47.854;7.944;2022-08-19T14:47:03;13.90;;;12.50;;
10246;SDS011;5168;47.854;7.944;2022-08-19T14:49:28;11.47;;;10.03;;